Briefing drone pour Aurec-sur-loire

Rechercher une autre localisation

Conditions de vol :


Nous sommes le : Mercredi 25 novembre 2020
Il est 01:57 UTC (02:57 LT)

Lever de soleil : 06:29 UTC (07:29 LT)
Coucher de soleil : 16:31 UTC (17:31 LT)

Météo

L'essentiel des conditions de vol

VIGILANCE MÉTÉO FRANCE - Haute-Loire (43)
Pas de vigilances particulieres
CARTE TEMSI
CARTES DES FRONTS
METAR de LFMH
LFMH 250130Z AUTO 17007KT CAVOK 05/03 Q1018 NOSIG

Date d'émission: 25/11/2020
Heure d'émission: 01:30 UTC
Vent: 170° pour 7 KT (13 km/h)
Visibilité horizontale: > 10 km
Plafond : Plafond et visibilité OK (CAVOK)
Température: 5 °C
Point de rosée: 3 °C
Humidité: 87%
Pression (QNH): 1018 hPa
Conditions: Pas de changement dans les 2 heures (NOSIG)
TAF de LFMH
LFMH 242015Z 2420/2512 CNL

Conditions prévues :

Heure d'émission : Bulletin éffectué le 24 à 20:00 UTC
Prévision : Valide du 24 a 20:00 UTC au 25 a 12:00 UTC
Nuages : à 0ft (0 m)
WEBCAM POUR AUREC-SUR-LOIRE

Réglementation

Voler en sécurité

CARTES AERONAUTIQUE 1/500.000
CARTES VAC (LFMH)
SUP AIP




Chargement des AIP...
NOTAM (AUREC-SUR-LOIRE + Terrain à proximité / FIR )




Chargement des NOTAMS...
CONTACT PREFECTURE 43


Avertissement : Les données mises à disposition sont indicatives. Oxygène Drone ne pourra être tenu responsable de dégâts causés aux biens et aux personnes.